Filewatcher File Search File Search
Catalog
Content Search
ftp://ftp.riken.jp/Linux/redhat/archive.redhat.com/redhat/linux/7.0/en/DMA/CPAN/SRPMS/  direct

11.18 KB2000-08-13perl-CGI-FastTemplate-1.00-8.src.rpm  17 mirrors
9.09 KB2000-08-13perl-CGI-Log-1.00-8.src.rpm  17 mirrors
10.05 KB2000-08-13perl-CGI-Minimal-1.06-8.src.rpm  17 mirrors
6.47 KB2000-08-13perl-CGI-Persistent-0.21-8.src.rpm  17 mirrors
8.40 KB2000-08-13perl-CGI-PrintWrapper-0.11-8.src.rpm  17 mirrors
44.64 KB2000-08-13perl-CGI-QuickForm-1.88-8.src.rpm  17 mirrors
10.61 KB2000-08-13perl-CGI-Response-0.021-8.src.rpm  17 mirrors
9.05 KB2000-08-13perl-CGI-SSI-0.01-8.src.rpm  17 mirrors
12.57 KB2000-08-13perl-CGI-Screen-0.115-8.src.rpm  17 mirrors
18.07 KB2000-08-13perl-CGI-SpeedyCGI-1.4-8.src.rpm  17 mirrors
12.57 KB2000-08-13perl-CGI-Validate-2.000-8.src.rpm  info  browse  21 mirrors  CGI-Validate module for perl (./id/Z/ZE/ZENIN)…more»   → /Main/Red Hat/src/Applications/CPAN/
14.42 KB2000-08-13perl-CGI-WAP-1.55-8.src.rpm  17 mirrors
42.49 KB2000-08-13perl-CGI-WeT-0.71-8.src.rpm  17 mirrors
5.37 KB2000-08-13perl-CGI-XML-0.1-8.src.rpm  17 mirrors
16.48 KB2000-08-13perl-CGI-XMLForm-0.10-8.src.rpm  17 mirrors
164.82 KB2000-08-13perl-CGI.pm-2.68-8.src.rpm  17 mirrors
8.61 KB2000-08-13perl-CIDR-Assign-0.01-8.src.rpm  17 mirrors
63.09 KB2000-08-13perl-CIPP-2.13-8.src.rpm  17 mirrors
10.83 KB2000-08-13perl-CORBA-IOP-IOR-0.1-8.src.rpm  17 mirrors
9.06 KB2000-08-13perl-CSS-Parser-0.61-8.src.rpm  17 mirrors
6.54 KB2000-08-13perl-Carp-Assert-0.06-8.src.rpm  17 mirrors
68.62 KB2000-08-13perl-CfgTie-0.2-8.src.rpm  17 mirrors
43.22 KB2000-08-13perl-Chart-0.99c-pre3-8.src.rpm  17 mirrors
10.73 KB2000-08-13perl-Chart-GnuPlot-0.02-8.src.rpm  17 mirrors
108.22 KB2000-08-13perl-Chart-PNGgraph-1.12-8.src.rpm  17 mirrors
13.08 KB2000-08-13perl-Chart-Pie-0.90-8.src.rpm  17 mirrors
14.06 KB2000-08-13perl-Chart-Plot-0.07-8.src.rpm  17 mirrors
7.98 KB2000-08-13perl-Chart-ThreeD-0.01-8.src.rpm  17 mirrors
6.04 KB2000-08-13perl-Class-BlackHole-0.03-8.src.rpm  17 mirrors
11.60 KB2000-08-13perl-Class-Class-0.18-8.src.rpm  17 mirrors
20.21 KB2000-08-13perl-Class-Classgen-classgen-3.00-8.src.rpm  17 mirrors
21.62 KB2000-08-13perl-Class-Classless-1.22-8.src.rpm  17 mirrors
18.71 KB2000-08-13perl-Class-DBI-0.13-8.src.rpm  17 mirrors
8.68 KB2000-08-13perl-Class-Exceptions-0.5-8.src.rpm  17 mirrors
42.17 KB2000-08-13perl-Class-Generate-1.03-8.src.rpm  17 mirrors
7.70 KB2000-08-13perl-Class-ISA-0.32-8.src.rpm  17 mirrors
21.06 KB2000-08-13perl-Class-MethodMaker-0.93-8.src.rpm  17 mirrors
6.52 KB2000-08-13perl-Class-NamedParms-1.04-8.src.rpm  17 mirrors
7.09 KB2000-08-13perl-Class-ParmList-1.02-8.src.rpm  17 mirrors
10.81 KB2000-08-13perl-Class-SelfMethods-1.07-8.src.rpm  17 mirrors
8.73 KB2000-08-13perl-Class-Visitor-0.02-8.src.rpm  17 mirrors
27.21 KB2000-08-13perl-ClearCase-Argv-0.23-8.src.rpm  17 mirrors
8.74 KB2000-08-13perl-ClearCase-ClearPrompt-1.13-8.src.rpm  17 mirrors
23.91 KB2000-08-13perl-ClearCase-Wrapper-0.16-8.src.rpm  17 mirrors
5.40 KB2000-08-13perl-Clone-0.06-8.src.rpm  17 mirrors
13.48 KB2000-08-13perl-Compress-Bzip2-1.00-8.src.rpm  17 mirrors
8.49 KB2000-08-13perl-Config-Access-0.01-8.src.rpm  17 mirrors
16.85 KB2000-08-13perl-Config-IniFiles-0.06-8.src.rpm  17 mirrors
5.62 KB2000-08-13perl-ConfigReader-Simple-0.5-8.src.rpm  17 mirrors
12.70 KB2000-08-13perl-Conjury-C-1.002-8.src.rpm  17 mirrors
<<     1   2   3   4   5   6   7   8   9   10   11   12   13   14   15   16     >>
Results 151 - 200 of 762
Help - FTP Sites List - Software Dir.
Search over 15 billion files
© 1997-2017 FileWatcher.com